Terminal Aerodrome Forecast
Issued by NWS Shreveport, LA

Current Version | Previous Version | Text Only | Print | Product List | Glossary On
Versions: 1 2 3 4 5 6 7 8 9 10 11 12
000
FTUS44 KSHV 280500
TAFTYR
TAF
KTYR 280526Z 2806/2906 20003KT P6SM SCT250
     FM281300 36005KT P6SM VCTS SCT060CB SCT250
     FM281800 36008KT P6SM SCT060 SCT250
     FM290000 01007KT P6SM SCT250=

USA.gov is the U.S. government's official web portal to all federal, state and local government web resources and services.